createdAt,value
2023-02-11T09:59:40.306Z,80.28
2023-02-11T10:02:38.088Z,75.65
2023-02-11T10:05:20.058Z,69.85
2023-02-11T10:08:17.218Z,78.93
2023-02-11T10:11:01.537Z,73.72
2023-02-11T10:14:07.731Z,76.05
2023-02-11T10:17:00.701Z,86.07
2023-02-11T10:19:54.945Z,77.10
2023-02-11T10:22:30.336Z,84.90
2023-02-11T10:25:00.751Z,79.88
2023-02-11T10:27:35.887Z,75.75
2023-02-11T10:30:35.008Z,72.43
2023-02-11T10:33:14.065Z,74.07
2023-02-11T10:35:42.604Z,70.97
2023-02-11T10:38:11.951Z,68.13
2023-02-11T10:40:38.746Z,81.82
2023-02-11T10:43:10.617Z,83.93
2023-02-11T10:45:50.752Z,85.75
2023-02-11T10:48:49.663Z,72.60
2023-02-11T10:51:23.271Z,80.07
2023-02-11T10:54:00.866Z,71.00
2023-02-11T10:56:28.742Z,76.22
2023-02-11T10:59:01.694Z,74.32
2023-02-11T11:01:50.164Z,71.50
2023-02-11T11:04:45.462Z,78.65
2023-02-11T11:07:30.119Z,87.57
2023-02-11T11:09:59.795Z,89.80
2023-02-11T11:12:26.430Z,84.13
2023-02-11T11:15:16.628Z,84.47
2023-02-11T11:17:43.336Z,94.70
2023-02-11T11:20:35.482Z,85.30
2023-02-11T11:23:13.701Z,76.15
2023-02-11T11:25:44.107Z,78.97
2023-02-11T11:28:24.420Z,73.78
2023-02-11T11:30:54.130Z,80.82
2023-02-11T11:33:26.130Z,91.72
2023-02-11T11:36:11.515Z,90.15
2023-02-11T11:38:48.406Z,91.22
2023-02-11T11:41:24.171Z,84.60
2023-02-11T11:43:56.723Z,79.80
2023-02-11T11:46:41.752Z,86.38
2023-02-11T11:49:22.086Z,85.45
2023-02-11T11:52:10.288Z,70.90
2023-02-11T11:54:37.509Z,84.45
2023-02-11T11:57:14.745Z,84.65
2023-02-11T11:59:44.360Z,88.10
2023-02-11T12:02:42.145Z,87.10
2023-02-11T12:05:26.883Z,82.25
2023-02-11T12:08:33.372Z,87.13
2023-02-11T12:11:28.437Z,67.97
2023-02-11T12:14:19.021Z,76.80
2023-02-11T12:16:54.540Z,69.18
2023-02-11T12:19:45.566Z,74.45
2023-02-11T12:22:44.202Z,71.07
2023-02-11T12:25:23.129Z,73.22
2023-02-11T12:28:26.812Z,67.03
2023-02-11T12:31:23.106Z,63.58
2023-02-11T12:34:00.842Z,65.18
2023-02-11T12:36:30.450Z,66.60
2023-02-11T12:39:27.097Z,54.42
2023-02-11T12:42:35.953Z,67.15
2023-02-11T12:45:22.445Z,64.88
2023-02-11T12:48:05.624Z,61.38
2023-02-11T12:50:55.171Z,65.28
2023-02-11T12:53:53.891Z,58.80
2023-02-11T12:56:40.458Z,63.78
2023-02-11T12:59:15.344Z,65.65
2023-02-11T13:01:47.329Z,62.08
2023-02-11T13:04:23.922Z,59.50
2023-02-11T13:07:02.572Z,54.17
2023-02-11T13:10:13.346Z,56.17
2023-02-11T13:13:03.524Z,66.57
2023-02-11T13:15:31.717Z,64.03
2023-02-11T13:18:30.000Z,53.45
2023-02-11T13:21:17.945Z,67.55
2023-02-11T13:23:57.991Z,52.25
2023-02-11T13:26:45.722Z,46.47
2023-02-11T13:29:26.285Z,54.40
2023-02-11T13:31:54.979Z,62.67
2023-02-11T13:34:26.977Z,53.92
2023-02-11T13:37:02.838Z,49.92
2023-02-11T13:39:29.592Z,51.83
2023-02-11T13:42:06.356Z,61.58
2023-02-11T13:44:34.884Z,52.65
2023-02-11T13:47:05.059Z,54.20
2023-02-11T13:49:41.482Z,56.63
2023-02-11T13:52:32.388Z,58.42
2023-02-11T13:55:22.635Z,51.70
2023-02-11T13:58:12.131Z,51.95
2023-02-11T14:00:38.712Z,49.42
2023-02-11T14:03:32.618Z,57.08
2023-02-11T14:06:27.172Z,42.67
2023-02-11T14:09:09.179Z,55.58
2023-02-11T14:11:46.300Z,46.90
2023-02-11T14:14:31.877Z,50.65
2023-02-11T14:16:58.690Z,58.03
2023-02-11T14:19:43.884Z,55.65
2023-02-11T14:22:10.534Z,65.53
2023-02-11T14:24:37.103Z,66.22
2023-02-11T14:27:25.920Z,64.72
2023-02-11T14:30:10.523Z,60.53
2023-02-11T14:33:08.451Z,57.60
2023-02-11T14:35:40.976Z,65.53
2023-02-11T14:38:26.982Z,65.97
2023-02-11T14:41:18.594Z,60.88
2023-02-11T14:43:53.252Z,60.40
2023-02-11T14:46:22.400Z,68.80
2023-02-11T14:48:52.324Z,63.90
2023-02-11T14:51:27.677Z,63.67
2023-02-11T14:54:02.031Z,68.18
2023-02-11T14:56:31.327Z,60.38
2023-02-11T14:58:58.405Z,70.00
2023-02-11T15:01:41.005Z,65.25
2023-02-11T15:04:25.336Z,62.58
2023-02-11T15:06:55.377Z,54.95
2023-02-11T15:09:34.270Z,61.50
2023-02-11T15:12:01.330Z,57.58
2023-02-11T15:14:37.368Z,63.05
2023-02-11T15:17:07.749Z,50.75
2023-02-11T15:19:38.545Z,60.88
2023-02-11T15:22:27.061Z,60.70
2023-02-11T15:25:01.137Z,57.22
2023-02-11T15:29:54.492Z,52.65
2023-02-11T15:32:34.846Z,60.60
2023-02-11T15:35:01.498Z,61.58
2023-02-11T15:37:30.021Z,61.05
2023-02-11T15:40:13.215Z,57.30
2023-02-11T15:42:52.122Z,62.72
2023-02-11T15:45:31.420Z,70.60
2023-02-11T15:48:24.744Z,58.90
2023-02-11T15:50:55.587Z,61.75
2023-02-11T15:53:33.404Z,59.88
2023-02-11T15:56:16.554Z,59.17
2023-02-11T15:58:45.982Z,50.67
2023-02-11T16:01:14.197Z,60.22
2023-02-11T16:03:44.073Z,57.85
2023-02-11T16:06:17.955Z,58.78
2023-02-11T16:09:01.416Z,52.50
2023-02-11T16:11:55.556Z,56.05
2023-02-11T16:14:29.618Z,64.78
2023-02-11T16:19:34.053Z,57.65
2023-02-11T16:22:10.108Z,56.42
2023-02-11T16:24:38.922Z,41.28
2023-02-11T16:27:18.380Z,54.53
2023-02-11T16:29:55.113Z,44.08
2023-02-11T16:32:26.748Z,49.15
2023-02-11T16:34:55.360Z,45.75
2023-02-11T16:37:21.978Z,57.53
2023-02-11T16:39:55.101Z,47.08
2023-02-11T16:42:21.739Z,57.72
2023-02-11T16:44:48.347Z,48.25
2023-02-11T16:47:26.688Z,46.13
2023-02-11T16:49:54.302Z,41.55
2023-02-11T16:52:21.913Z,41.72
2023-02-11T16:54:48.863Z,39.58
2023-02-11T16:57:16.600Z,44.45
2023-02-11T16:59:46.698Z,40.33
2023-02-11T17:02:23.958Z,41.47
2023-02-11T17:04:52.871Z,45.58
2023-02-11T17:07:31.923Z,40.00
2023-02-11T17:09:59.300Z,41.65
2023-02-11T17:12:28.631Z,39.80
2023-02-11T17:14:55.382Z,40.15
2023-02-11T17:17:25.076Z,40.13
2023-02-11T17:19:52.133Z,43.47
2023-02-11T17:22:22.016Z,39.95
2023-02-11T17:24:48.928Z,40.15
2023-02-11T17:27:15.588Z,40.65
2023-02-11T17:29:42.242Z,46.20
2023-02-11T17:32:08.899Z,41.00
2023-02-11T17:34:35.763Z,42.83
2023-02-11T17:37:08.995Z,40.50
2023-02-11T17:39:37.014Z,40.00
2023-02-11T17:42:04.360Z,41.53
2023-02-11T17:44:30.992Z,50.72
2023-02-11T17:46:58.788Z,49.55
2023-02-11T17:49:25.593Z,43.00
2023-02-11T17:51:52.297Z,39.83
2023-02-11T17:54:22.708Z,41.97
2023-02-11T17:56:51.056Z,41.47
2023-02-11T17:59:17.918Z,40.83
2023-02-11T18:01:44.598Z,42.45
2023-02-11T18:04:15.392Z,41.05
2023-02-11T18:06:42.094Z,39.08
2023-02-11T18:09:12.210Z,43.83
2023-02-11T18:11:40.168Z,43.95
2023-02-11T18:14:08.546Z,47.97
2023-02-11T18:16:39.032Z,45.83
2023-02-11T18:19:07.839Z,42.72
2023-02-11T18:21:35.055Z,43.80
2023-02-11T18:24:06.481Z,38.28
2023-02-11T18:26:37.210Z,42.58
2023-02-11T18:29:06.320Z,36.75
2023-02-11T18:31:35.430Z,37.95
2023-02-11T18:34:05.630Z,39.78
2023-02-11T18:36:38.088Z,38.33
2023-02-11T18:39:05.987Z,36.70
2023-02-11T18:41:32.676Z,35.80
2023-02-11T18:44:02.817Z,37.45
2023-02-11T18:46:29.948Z,38.70
2023-02-11T18:48:56.676Z,40.92
2023-02-11T18:51:23.743Z,36.88
2023-02-11T18:53:50.571Z,34.53
2023-02-11T18:56:23.768Z,33.88
2023-02-11T18:58:51.493Z,32.63
2023-02-11T19:01:29.498Z,34.10
2023-02-11T19:03:58.107Z,35.75
2023-02-11T19:06:27.367Z,37.55
2023-02-11T19:08:59.196Z,35.80
2023-02-11T19:11:45.437Z,33.65
2023-02-11T19:14:14.237Z,34.83
2023-02-11T19:16:42.616Z,36.60
2023-02-11T19:19:09.669Z,34.78
2023-02-11T19:21:36.933Z,34.28
2023-02-11T19:24:07.988Z,34.78
2023-02-11T19:26:35.714Z,35.70
2023-02-11T19:29:02.772Z,36.67
2023-02-11T19:31:32.354Z,35.50
2023-02-11T19:34:00.375Z,35.13
2023-02-11T19:36:29.430Z,49.28
2023-02-11T19:38:56.145Z,35.30
2023-02-11T19:41:23.333Z,39.47
2023-02-11T19:43:53.788Z,36.78
2023-02-11T19:46:24.374Z,37.40
2023-02-11T19:48:51.279Z,36.80
2023-02-11T19:51:18.311Z,35.35
2023-02-11T19:53:47.853Z,36.33
2023-02-11T19:56:20.417Z,39.45
2023-02-11T19:58:47.368Z,37.30
2023-02-11T20:01:19.714Z,38.22
2023-02-11T20:03:50.249Z,38.03
2023-02-11T20:06:28.488Z,37.30
2023-02-11T20:09:02.714Z,35.47
2023-02-11T20:11:31.264Z,35.25
2023-02-11T20:13:58.590Z,36.63
2023-02-11T20:16:46.039Z,36.75
2023-02-11T20:19:20.584Z,33.75
2023-02-11T20:21:48.832Z,33.75
2023-02-11T20:24:19.090Z,36.78
2023-02-11T20:26:48.486Z,35.78
2023-02-11T20:29:17.469Z,34.35
2023-02-11T20:31:44.849Z,34.00
2023-02-11T20:34:14.448Z,34.78
2023-02-11T20:36:41.265Z,33.65
2023-02-11T20:39:08.985Z,35.90
2023-02-11T20:41:40.060Z,37.22
2023-02-11T20:44:08.711Z,38.10
2023-02-11T20:46:40.183Z,34.08
2023-02-11T20:49:09.097Z,34.83
2023-02-11T20:51:37.001Z,35.65
2023-02-11T20:54:04.113Z,34.17
2023-02-11T20:56:32.555Z,36.42
2023-02-11T20:59:01.629Z,35.30
2023-02-11T21:01:34.572Z,33.50
2023-02-11T21:04:06.760Z,34.05
2023-02-11T21:06:36.431Z,37.38
2023-02-11T21:09:05.515Z,32.50
2023-02-11T21:11:32.376Z,37.08
2023-02-11T21:13:59.605Z,37.63
2023-02-11T21:16:26.411Z,36.10
2023-02-11T21:18:55.459Z,33.80
2023-02-11T21:21:23.321Z,37.13
2023-02-11T21:23:50.331Z,32.60
2023-02-11T21:26:17.637Z,32.60
2023-02-11T21:28:45.101Z,33.30
2023-02-11T21:31:37.158Z,33.33
2023-02-11T21:34:10.627Z,34.40
2023-02-11T21:36:37.325Z,33.05
2023-02-11T21:39:04.357Z,34.20
2023-02-11T21:41:31.470Z,33.20
2023-02-11T21:43:58.274Z,33.95
2023-02-11T21:46:25.034Z,32.95
2023-02-11T21:48:54.046Z,35.05
2023-02-11T21:51:23.758Z,34.17
2023-02-11T21:54:01.411Z,34.63
2023-02-11T21:56:34.351Z,33.55
2023-02-11T21:59:03.713Z,34.75
2023-02-11T22:01:35.400Z,38.63
2023-02-11T22:04:02.158Z,33.95
2023-02-11T22:06:31.391Z,35.65
2023-02-11T22:08:59.424Z,32.75
2023-02-11T22:11:26.071Z,35.17
2023-02-11T22:13:56.534Z,32.75
2023-02-11T22:16:23.916Z,35.15
2023-02-11T22:18:51.666Z,35.65
2023-02-11T22:21:20.959Z,35.55
2023-02-11T22:23:48.803Z,37.38
2023-02-11T22:26:21.280Z,34.05
2023-02-11T22:28:48.856Z,33.45
2023-02-11T22:31:19.056Z,36.83
2023-02-11T22:33:45.798Z,37.08
2023-02-11T22:36:33.926Z,36.67
2023-02-11T22:39:06.563Z,37.58
2023-02-11T22:41:33.709Z,37.15
2023-02-11T22:44:00.632Z,35.95
2023-02-11T22:46:27.533Z,37.35
2023-02-11T22:48:57.144Z,36.28
2023-02-11T22:51:31.334Z,38.05
2023-02-11T22:54:00.606Z,36.05
2023-02-11T22:56:28.226Z,35.83
2023-02-11T23:01:29.865Z,35.40
2023-02-11T23:03:56.636Z,36.60
2023-02-11T23:06:26.230Z,35.90
2023-02-11T23:08:53.181Z,35.22
2023-02-11T23:11:23.670Z,36.55
2023-02-11T23:13:52.175Z,36.15
2023-02-11T23:16:22.309Z,46.08
2023-02-11T23:18:49.873Z,35.33
2023-02-11T23:21:26.104Z,34.85
2023-02-11T23:24:05.328Z,35.20
2023-02-11T23:26:32.050Z,36.00
2023-02-11T23:29:00.035Z,38.03
2023-02-11T23:31:35.488Z,44.92
2023-02-11T23:34:07.596Z,39.25
2023-02-11T23:36:34.760Z,36.65
2023-02-11T23:39:01.836Z,39.03
2023-02-11T23:41:31.665Z,36.63
2023-02-11T23:43:58.460Z,34.47
2023-02-11T23:46:31.426Z,40.67
2023-02-11T23:48:58.058Z,36.38
2023-02-11T23:51:24.796Z,38.10
2023-02-11T23:53:56.183Z,36.17
2023-02-11T23:56:27.426Z,38.35
2023-02-11T23:58:57.317Z,36.83
